sensor_id;sensor_type;location;lat;lon;timestamp;temperature;humidity
68912;SHT31;55953;51.650;-0.522;2023-08-06T00:01:43;12.56;82.68
68912;SHT31;55953;51.650;-0.522;2023-08-06T00:04:11;12.51;82.91
68912;SHT31;55953;51.650;-0.522;2023-08-06T00:06:39;12.45;82.84
68912;SHT31;55953;51.650;-0.522;2023-08-06T00:09:07;12.39;82.94
68912;SHT31;55953;51.650;-0.522;2023-08-06T00:11:35;12.35;83.09
68912;SHT31;55953;51.650;-0.522;2023-08-06T00:14:02;12.33;83.14
68912;SHT31;55953;51.650;-0.522;2023-08-06T00:16:30;12.28;83.19
68912;SHT31;55953;51.650;-0.522;2023-08-06T00:18:58;12.24;83.19
68912;SHT31;55953;51.650;-0.522;2023-08-06T00:21:26;12.22;83.31
68912;SHT31;55953;51.650;-0.522;2023-08-06T00:23:54;12.19;83.41
68912;SHT31;55953;51.650;-0.522;2023-08-06T00:26:21;12.15;83.51
68912;SHT31;55953;51.650;-0.522;2023-08-06T00:28:49;12.13;83.56
68912;SHT31;55953;51.650;-0.522;2023-08-06T00:31:17;12.12;83.61
68912;SHT31;55953;51.650;-0.522;2023-08-06T00:33:45;12.09;83.63
68912;SHT31;55953;51.650;-0.522;2023-08-06T00:36:12;12.08;83.60
68912;SHT31;55953;51.650;-0.522;2023-08-06T00:38:40;12.07;83.66
68912;SHT31;55953;51.650;-0.522;2023-08-06T00:41:09;12.06;83.61
68912;SHT31;55953;51.650;-0.522;2023-08-06T00:43:37;12.06;83.70
68912;SHT31;55953;51.650;-0.522;2023-08-06T00:46:05;12.05;83.70
68912;SHT31;55953;51.650;-0.522;2023-08-06T00:48:33;12.03;83.71
68912;SHT31;55953;51.650;-0.522;2023-08-06T00:51:01;12.02;83.66
68912;SHT31;55953;51.650;-0.522;2023-08-06T00:53:29;12.00;83.71
68912;SHT31;55953;51.650;-0.522;2023-08-06T00:55:57;11.99;83.80
68912;SHT31;55953;51.650;-0.522;2023-08-06T00:58:25;11.97;83.84
68912;SHT31;55953;51.650;-0.522;2023-08-06T01:00:53;11.95;83.87
68912;SHT31;55953;51.650;-0.522;2023-08-06T01:03:21;11.93;83.95
68912;SHT31;55953;51.650;-0.522;2023-08-06T01:05:49;11.91;83.93
68912;SHT31;55953;51.650;-0.522;2023-08-06T01:08:21;11.91;83.91
68912;SHT31;55953;51.650;-0.522;2023-08-06T01:17:13;11.82;84.05
68912;SHT31;55953;51.650;-0.522;2023-08-06T01:19:41;11.83;84.09
68912;SHT31;55953;51.650;-0.522;2023-08-06T01:22:09;11.80;83.99
68912;SHT31;55953;51.650;-0.522;2023-08-06T01:24:37;11.76;84.02
68912;SHT31;55953;51.650;-0.522;2023-08-06T01:27:08;11.76;84.11
68912;SHT31;55953;51.650;-0.522;2023-08-06T01:29:45;11.75;84.03
68912;SHT31;55953;51.650;-0.522;2023-08-06T01:32:22;11.74;84.07
68912;SHT31;55953;51.650;-0.522;2023-08-06T01:34:53;11.72;84.11
68912;SHT31;55953;51.650;-0.522;2023-08-06T01:37:23;11.71;84.12
68912;SHT31;55953;51.650;-0.522;2023-08-06T01:39:51;11.70;84.11
68912;SHT31;55953;51.650;-0.522;2023-08-06T01:42:18;11.69;84.12
68912;SHT31;55953;51.650;-0.522;2023-08-06T01:44:47;11.69;84.14
68912;SHT31;55953;51.650;-0.522;2023-08-06T01:47:15;11.67;84.13
68912;SHT31;55953;51.650;-0.522;2023-08-06T01:49:42;11.67;84.17
68912;SHT31;55953;51.650;-0.522;2023-08-06T01:52:10;11.66;84.04
68912;SHT31;55953;51.650;-0.522;2023-08-06T01:54:38;11.65;84.07
68912;SHT31;55953;51.650;-0.522;2023-08-06T01:57:06;11.64;84.08
68912;SHT31;55953;51.650;-0.522;2023-08-06T01:59:33;11.64;84.07
68912;SHT31;55953;51.650;-0.522;2023-08-06T02:02:03;11.63;84.04
68912;SHT31;55953;51.650;-0.522;2023-08-06T02:04:31;11.62;84.12
68912;SHT31;55953;51.650;-0.522;2023-08-06T02:06:59;11.60;84.09
68912;SHT31;55953;51.650;-0.522;2023-08-06T02:09:27;11.59;84.13
68912;SHT31;55953;51.650;-0.522;2023-08-06T02:11:54;11.59;84.18
68912;SHT31;55953;51.650;-0.522;2023-08-06T02:14:22;11.58;84.19
68912;SHT31;55953;51.650;-0.522;2023-08-06T02:16:50;11.56;84.10
68912;SHT31;55953;51.650;-0.522;2023-08-06T02:19:18;11.55;84.08
68912;SHT31;55953;51.650;-0.522;2023-08-06T02:21:46;11.53;84.14
68912;SHT31;55953;51.650;-0.522;2023-08-06T02:24:15;11.52;84.12
68912;SHT31;55953;51.650;-0.522;2023-08-06T02:26:43;11.52;84.02
68912;SHT31;55953;51.650;-0.522;2023-08-06T02:29:12;11.50;83.93
68912;SHT31;55953;51.650;-0.522;2023-08-06T02:31:42;11.49;83.87
68912;SHT31;55953;51.650;-0.522;2023-08-06T02:34:10;11.49;83.76
68912;SHT31;55953;51.650;-0.522;2023-08-06T02:36:38;11.48;83.76
68912;SHT31;55953;51.650;-0.522;2023-08-06T02:39:06;11.49;83.66
68912;SHT31;55953;51.650;-0.522;2023-08-06T02:41:35;11.51;83.67
68912;SHT31;55953;51.650;-0.522;2023-08-06T02:44:03;11.50;83.70
68912;SHT31;55953;51.650;-0.522;2023-08-06T02:46:31;11.49;83.63
68912;SHT31;55953;51.650;-0.522;2023-08-06T02:48:59;11.48;83.44
68912;SHT31;55953;51.650;-0.522;2023-08-06T02:51:26;11.48;83.39
68912;SHT31;55953;51.650;-0.522;2023-08-06T02:53:54;11.47;83.43
68912;SHT31;55953;51.650;-0.522;2023-08-06T02:56:22;11.48;83.28
68912;SHT31;55953;51.650;-0.522;2023-08-06T02:58:57;11.47;83.35
68912;SHT31;55953;51.650;-0.522;2023-08-06T03:01:34;11.46;83.36
68912;SHT31;55953;51.650;-0.522;2023-08-06T03:04:07;11.41;83.39
68912;SHT31;55953;51.650;-0.522;2023-08-06T03:06:38;11.39;83.50
68912;SHT31;55953;51.650;-0.522;2023-08-06T03:09:06;11.37;83.63
68912;SHT31;55953;51.650;-0.522;2023-08-06T03:11:34;11.37;83.65
68912;SHT31;55953;51.650;-0.522;2023-08-06T03:14:06;11.34;83.73
68912;SHT31;55953;51.650;-0.522;2023-08-06T03:16:39;11.30;83.76
68912;SHT31;55953;51.650;-0.522;2023-08-06T03:19:08;11.30;83.74
68912;SHT31;55953;51.650;-0.522;2023-08-06T03:21:35;11.28;83.82
68912;SHT31;55953;51.650;-0.522;2023-08-06T03:24:04;11.27;83.82
68912;SHT31;55953;51.650;-0.522;2023-08-06T03:26:32;11.27;83.87
68912;SHT31;55953;51.650;-0.522;2023-08-06T03:29:00;11.26;83.87
68912;SHT31;55953;51.650;-0.522;2023-08-06T03:31:30;11.26;83.81
68912;SHT31;55953;51.650;-0.522;2023-08-06T03:33:57;11.24;83.83
68912;SHT31;55953;51.650;-0.522;2023-08-06T03:36:26;11.23;83.78
68912;SHT31;55953;51.650;-0.522;2023-08-06T03:38:55;11.22;83.75
68912;SHT31;55953;51.650;-0.522;2023-08-06T03:41:23;11.21;83.67
68912;SHT31;55953;51.650;-0.522;2023-08-06T03:43:51;11.22;83.62
68912;SHT31;55953;51.650;-0.522;2023-08-06T03:46:22;11.22;83.58
68912;SHT31;55953;51.650;-0.522;2023-08-06T03:48:50;11.19;83.71
68912;SHT31;55953;51.650;-0.522;2023-08-06T03:51:19;11.18;83.74
68912;SHT31;55953;51.650;-0.522;2023-08-06T03:53:47;11.19;83.73
68912;SHT31;55953;51.650;-0.522;2023-08-06T03:56:15;11.17;83.69
68912;SHT31;55953;51.650;-0.522;2023-08-06T03:58:43;11.14;83.90
68912;SHT31;55953;51.650;-0.522;2023-08-06T04:01:11;11.13;83.93
68912;SHT31;55953;51.650;-0.522;2023-08-06T04:03:42;11.13;83.99
68912;SHT31;55953;51.650;-0.522;2023-08-06T04:06:11;11.11;84.03
68912;SHT31;55953;51.650;-0.522;2023-08-06T04:08:39;11.11;83.98
68912;SHT31;55953;51.650;-0.522;2023-08-06T04:11:07;11.10;83.93
68912;SHT31;55953;51.650;-0.522;2023-08-06T04:13:35;11.09;83.92
68912;SHT31;55953;51.650;-0.522;2023-08-06T04:16:03;11.10;83.90
68912;SHT31;55953;51.650;-0.522;2023-08-06T04:18:32;11.08;83.91
68912;SHT31;55953;51.650;-0.522;2023-08-06T04:21:01;11.07;83.87
68912;SHT31;55953;51.650;-0.522;2023-08-06T04:23:29;11.06;83.87
68912;SHT31;55953;51.650;-0.522;2023-08-06T04:26:00;11.05;83.81
68912;SHT31;55953;51.650;-0.522;2023-08-06T04:28:31;11.02;83.89
68912;SHT31;55953;51.650;-0.522;2023-08-06T04:30:59;10.99;84.08
68912;SHT31;55953;51.650;-0.522;2023-08-06T04:33:27;10.98;84.04
68912;SHT31;55953;51.650;-0.522;2023-08-06T04:35:57;11.00;84.00
68912;SHT31;55953;51.650;-0.522;2023-08-06T04:38:26;11.01;83.98
68912;SHT31;55953;51.650;-0.522;2023-08-06T04:40:54;10.98;84.04
68912;SHT31;55953;51.650;-0.522;2023-08-06T04:43:22;10.97;84.17
68912;SHT31;55953;51.650;-0.522;2023-08-06T04:45:51;10.96;84.16
68912;SHT31;55953;51.650;-0.522;2023-08-06T04:48:22;10.94;84.19
68912;SHT31;55953;51.650;-0.522;2023-08-06T04:50:50;10.93;84.17
68912;SHT31;55953;51.650;-0.522;2023-08-06T04:53:18;10.94;84.17
68912;SHT31;55953;51.650;-0.522;2023-08-06T04:55:46;10.93;84.12
68912;SHT31;55953;51.650;-0.522;2023-08-06T04:58:14;10.95;84.13
68912;SHT31;55953;51.650;-0.522;2023-08-06T05:00:42;10.97;84.10
68912;SHT31;55953;51.650;-0.522;2023-08-06T05:03:10;10.99;84.14
68912;SHT31;55953;51.650;-0.522;2023-08-06T05:05:39;11.00;84.16
68912;SHT31;55953;51.650;-0.522;2023-08-06T05:08:13;11.04;84.13
68912;SHT31;55953;51.650;-0.522;2023-08-06T05:10:45;11.08;84.08
68912;SHT31;55953;51.650;-0.522;2023-08-06T05:13:13;11.10;84.04
68912;SHT31;55953;51.650;-0.522;2023-08-06T05:15:41;11.14;84.06
68912;SHT31;55953;51.650;-0.522;2023-08-06T05:18:10;11.17;84.10
68912;SHT31;55953;51.650;-0.522;2023-08-06T05:20:40;11.20;84.04
68912;SHT31;55953;51.650;-0.522;2023-08-06T05:23:09;11.20;84.09
68912;SHT31;55953;51.650;-0.522;2023-08-06T05:25:37;11.23;84.13
68912;SHT31;55953;51.650;-0.522;2023-08-06T05:28:05;11.29;84.00
68912;SHT31;55953;51.650;-0.522;2023-08-06T05:30:33;11.32;84.06
68912;SHT31;55953;51.650;-0.522;2023-08-06T05:33:04;11.34;84.20
68912;SHT31;55953;51.650;-0.522;2023-08-06T05:35:32;11.40;84.28
68912;SHT31;55953;51.650;-0.522;2023-08-06T05:38:00;11.48;84.15
68912;SHT31;55953;51.650;-0.522;2023-08-06T05:40:27;11.55;84.13
68912;SHT31;55953;51.650;-0.522;2023-08-06T05:42:55;11.64;84.14
68912;SHT31;55953;51.650;-0.522;2023-08-06T05:45:23;11.75;84.12
68912;SHT31;55953;51.650;-0.522;2023-08-06T05:47:51;11.87;83.95
68912;SHT31;55953;51.650;-0.522;2023-08-06T05:50:22;11.98;83.81
68912;SHT31;55953;51.650;-0.522;2023-08-06T05:52:50;12.10;83.76
68912;SHT31;55953;51.650;-0.522;2023-08-06T05:55:18;12.18;83.65
68912;SHT31;55953;51.650;-0.522;2023-08-06T05:57:47;12.27;83.45
68912;SHT31;55953;51.650;-0.522;2023-08-06T06:00:15;12.34;83.39
68912;SHT31;55953;51.650;-0.522;2023-08-06T06:02:45;12.38;83.30
68912;SHT31;55953;51.650;-0.522;2023-08-06T06:05:13;12.38;83.01
68912;SHT31;55953;51.650;-0.522;2023-08-06T06:07:41;12.39;83.06
68912;SHT31;55953;51.650;-0.522;2023-08-06T06:10:09;12.42;82.94
68912;SHT31;55953;51.650;-0.522;2023-08-06T06:12:40;12.47;82.81
68912;SHT31;55953;51.650;-0.522;2023-08-06T06:15:08;12.54;82.64
68912;SHT31;55953;51.650;-0.522;2023-08-06T06:17:38;12.60;82.12
68912;SHT31;55953;51.650;-0.522;2023-08-06T06:20:07;12.67;82.20
68912;SHT31;55953;51.650;-0.522;2023-08-06T06:22:35;12.76;82.21
68912;SHT31;55953;51.650;-0.522;2023-08-06T06:25:03;12.82;82.12
68912;SHT31;55953;51.650;-0.522;2023-08-06T06:27:31;12.92;82.01
68912;SHT31;55953;51.650;-0.522;2023-08-06T06:29:59;12.90;81.41
68912;SHT31;55953;51.650;-0.522;2023-08-06T06:32:27;12.93;81.74
68912;SHT31;55953;51.650;-0.522;2023-08-06T06:34:55;12.98;81.56
68912;SHT31;55953;51.650;-0.522;2023-08-06T06:37:23;12.99;81.54
68912;SHT31;55953;51.650;-0.522;2023-08-06T06:39:50;13.02;81.62
68912;SHT31;55953;51.650;-0.522;2023-08-06T06:42:18;13.05;81.60
68912;SHT31;55953;51.650;-0.522;2023-08-06T06:44:46;13.12;81.52
68912;SHT31;55953;51.650;-0.522;2023-08-06T06:47:14;13.20;80.98
68912;SHT31;55953;51.650;-0.522;2023-08-06T06:49:42;13.22;80.92
68912;SHT31;55953;51.650;-0.522;2023-08-06T06:52:10;13.29;81.36
68912;SHT31;55953;51.650;-0.522;2023-08-06T06:54:38;13.38;80.97
68912;SHT31;55953;51.650;-0.522;2023-08-06T06:57:06;13.39;80.52
68912;SHT31;55953;51.650;-0.522;2023-08-06T06:59:34;13.41;80.49
68912;SHT31;55953;51.650;-0.522;2023-08-06T07:02:02;13.33;80.02
68912;SHT31;55953;51.650;-0.522;2023-08-06T07:04:29;13.23;80.46
68912;SHT31;55953;51.650;-0.522;2023-08-06T07:06:57;13.24;80.65
68912;SHT31;55953;51.650;-0.522;2023-08-06T07:09:25;13.26;80.54
68912;SHT31;55953;51.650;-0.522;2023-08-06T07:11:53;13.30;80.94
68912;SHT31;55953;51.650;-0.522;2023-08-06T07:14:22;13.39;80.93
68912;SHT31;55953;51.650;-0.522;2023-08-06T07:16:53;13.45;80.81
68912;SHT31;55953;51.650;-0.522;2023-08-06T07:19:21;13.51;80.78
68912;SHT31;55953;51.650;-0.522;2023-08-06T07:21:49;13.53;80.48
68912;SHT31;55953;51.650;-0.522;2023-08-06T07:24:16;13.56;80.28
68912;SHT31;55953;51.650;-0.522;2023-08-06T07:26:44;13.60;80.09
68912;SHT31;55953;51.650;-0.522;2023-08-06T07:29:12;13.61;79.94
68912;SHT31;55953;51.650;-0.522;2023-08-06T07:31:40;13.61;79.67
68912;SHT31;55953;51.650;-0.522;2023-08-06T07:34:07;13.64;79.61
68912;SHT31;55953;51.650;-0.522;2023-08-06T07:36:35;13.72;79.36
68912;SHT31;55953;51.650;-0.522;2023-08-06T07:39:03;13.78;79.36
68912;SHT31;55953;51.650;-0.522;2023-08-06T07:41:34;13.88;78.70
68912;SHT31;55953;51.650;-0.522;2023-08-06T07:44:02;13.97;78.91
68912;SHT31;55953;51.650;-0.522;2023-08-06T07:46:30;14.09;78.91
68912;SHT31;55953;51.650;-0.522;2023-08-06T07:48:59;14.18;77.71
68912;SHT31;55953;51.650;-0.522;2023-08-06T07:51:27;14.29;77.31
68912;SHT31;55953;51.650;-0.522;2023-08-06T07:53:54;14.40;77.45
68912;SHT31;55953;51.650;-0.522;2023-08-06T07:56:22;14.53;77.42
68912;SHT31;55953;51.650;-0.522;2023-08-06T07:58:50;14.63;76.98
68912;SHT31;55953;51.650;-0.522;2023-08-06T08:01:18;14.68;76.07
68912;SHT31;55953;51.650;-0.522;2023-08-06T08:03:45;14.72;75.94
68912;SHT31;55953;51.650;-0.522;2023-08-06T08:06:13;14.79;76.29
68912;SHT31;55953;51.650;-0.522;2023-08-06T08:08:41;14.87;75.85
68912;SHT31;55953;51.650;-0.522;2023-08-06T08:11:09;14.92;75.00
68912;SHT31;55953;51.650;-0.522;2023-08-06T08:13:37;14.98;74.31
68912;SHT31;55953;51.650;-0.522;2023-08-06T08:16:04;15.19;75.29
68912;SHT31;55953;51.650;-0.522;2023-08-06T08:18:32;15.34;74.97
68912;SHT31;55953;51.650;-0.522;2023-08-06T08:21:00;15.29;73.42
68912;SHT31;55953;51.650;-0.522;2023-08-06T08:23:28;15.28;73.28
68912;SHT31;55953;51.650;-0.522;2023-08-06T08:25:56;15.30;73.28
68912;SHT31;55953;51.650;-0.522;2023-08-06T08:28:24;15.40;73.21
68912;SHT31;55953;51.650;-0.522;2023-08-06T08:30:51;15.57;72.52
68912;SHT31;55953;51.650;-0.522;2023-08-06T08:33:22;15.78;71.86
68912;SHT31;55953;51.650;-0.522;2023-08-06T08:35:50;15.98;71.35
68912;SHT31;55953;51.650;-0.522;2023-08-06T08:38:17;16.15;71.94
68912;SHT31;55953;51.650;-0.522;2023-08-06T08:40:46;16.26;71.65
68912;SHT31;55953;51.650;-0.522;2023-08-06T08:43:23;16.34;71.16
68912;SHT31;55953;51.650;-0.522;2023-08-06T08:45:51;16.33;70.80
68912;SHT31;55953;51.650;-0.522;2023-08-06T08:48:27;16.36;70.00
68912;SHT31;55953;51.650;-0.522;2023-08-06T08:50:55;16.31;69.83
68912;SHT31;55953;51.650;-0.522;2023-08-06T08:53:23;16.48;69.54
68912;SHT31;55953;51.650;-0.522;2023-08-06T08:55:53;16.66;69.04
68912;SHT31;55953;51.650;-0.522;2023-08-06T08:58:22;16.84;68.19
68912;SHT31;55953;51.650;-0.522;2023-08-06T09:00:49;17.01;68.32
68912;SHT31;55953;51.650;-0.522;2023-08-06T09:03:19;17.09;68.06
68912;SHT31;55953;51.650;-0.522;2023-08-06T09:05:48;17.22;67.91
68912;SHT31;55953;51.650;-0.522;2023-08-06T09:08:21;17.21;67.74
68912;SHT31;55953;51.650;-0.522;2023-08-06T09:10:56;17.26;68.72
68912;SHT31;55953;51.650;-0.522;2023-08-06T09:13:25;17.20;68.39
68912;SHT31;55953;51.650;-0.522;2023-08-06T09:15:53;17.09;68.31
68912;SHT31;55953;51.650;-0.522;2023-08-06T09:18:27;17.00;68.31
68912;SHT31;55953;51.650;-0.522;2023-08-06T09:20:58;16.89;68.47
68912;SHT31;55953;51.650;-0.522;2023-08-06T09:23:29;16.68;68.52
68912;SHT31;55953;51.650;-0.522;2023-08-06T09:25:58;16.54;69.52
68912;SHT31;55953;51.650;-0.522;2023-08-06T09:28:36;16.44;69.21
68912;SHT31;55953;51.650;-0.522;2023-08-06T09:31:10;16.40;68.97
68912;SHT31;55953;51.650;-0.522;2023-08-06T09:33:38;16.42;68.48
68912;SHT31;55953;51.650;-0.522;2023-08-06T09:36:09;16.48;68.41
68912;SHT31;55953;51.650;-0.522;2023-08-06T09:38:39;16.61;68.49
68912;SHT31;55953;51.650;-0.522;2023-08-06T09:41:07;16.85;69.22
68912;SHT31;55953;51.650;-0.522;2023-08-06T09:43:42;17.05;69.27
68912;SHT31;55953;51.650;-0.522;2023-08-06T09:46:11;17.00;69.61
68912;SHT31;55953;51.650;-0.522;2023-08-06T09:48:44;16.95;69.43
68912;SHT31;55953;51.650;-0.522;2023-08-06T09:51:14;17.12;69.80
68912;SHT31;55953;51.650;-0.522;2023-08-06T09:53:42;17.30;67.94
68912;SHT31;55953;51.650;-0.522;2023-08-06T09:56:12;17.38;68.24
68912;SHT31;55953;51.650;-0.522;2023-08-06T09:58:43;17.61;68.61
68912;SHT31;55953;51.650;-0.522;2023-08-06T10:01:14;17.81;68.21
68912;SHT31;55953;51.650;-0.522;2023-08-06T10:03:45;17.84;67.64
68912;SHT31;55953;51.650;-0.522;2023-08-06T10:06:15;17.74;67.18
68912;SHT31;55953;51.650;-0.522;2023-08-06T10:08:43;17.53;66.89
68912;SHT31;55953;51.650;-0.522;2023-08-06T10:11:12;17.33;67.74
68912;SHT31;55953;51.650;-0.522;2023-08-06T10:13:42;17.12;68.22
68912;SHT31;55953;51.650;-0.522;2023-08-06T10:16:11;16.91;69.24
68912;SHT31;55953;51.650;-0.522;2023-08-06T10:18:40;16.80;69.61
68912;SHT31;55953;51.650;-0.522;2023-08-06T10:21:09;16.70;69.89
68912;SHT31;55953;51.650;-0.522;2023-08-06T10:23:37;16.65;70.36
68912;SHT31;55953;51.650;-0.522;2023-08-06T10:26:08;16.64;70.28
68912;SHT31;55953;51.650;-0.522;2023-08-06T10:28:36;16.62;70.32
68912;SHT31;55953;51.650;-0.522;2023-08-06T10:31:06;16.62;70.48
68912;SHT31;55953;51.650;-0.522;2023-08-06T10:33:43;16.62;70.48
68912;SHT31;55953;51.650;-0.522;2023-08-06T10:36:15;16.58;70.89
68912;SHT31;55953;51.650;-0.522;2023-08-06T10:38:49;16.54;71.32
68912;SHT31;55953;51.650;-0.522;2023-08-06T10:41:27;16.48;70.97
68912;SHT31;55953;51.650;-0.522;2023-08-06T10:44:06;16.41;71.04
68912;SHT31;55953;51.650;-0.522;2023-08-06T10:46:36;16.34;71.72
68912;SHT31;55953;51.650;-0.522;2023-08-06T10:49:05;16.32;71.78
68912;SHT31;55953;51.650;-0.522;2023-08-06T10:51:34;16.29;71.98
68912;SHT31;55953;51.650;-0.522;2023-08-06T10:54:04;16.28;72.29
68912;SHT31;55953;51.650;-0.522;2023-08-06T10:56:32;16.25;72.67
68912;SHT31;55953;51.650;-0.522;2023-08-06T10:59:09;16.17;73.63
68912;SHT31;55953;51.650;-0.522;2023-08-06T11:01:38;16.05;74.20
68912;SHT31;55953;51.650;-0.522;2023-08-06T11:04:06;15.94;74.41
68912;SHT31;55953;51.650;-0.522;2023-08-06T11:06:34;15.74;75.27
68912;SHT31;55953;51.650;-0.522;2023-08-06T11:09:02;15.53;76.32
68912;SHT31;55953;51.650;-0.522;2023-08-06T11:11:30;15.31;77.05
68912;SHT31;55953;51.650;-0.522;2023-08-06T11:13:57;15.18;77.60
68912;SHT31;55953;51.650;-0.522;2023-08-06T11:16:25;15.06;78.41
68912;SHT31;55953;51.650;-0.522;2023-08-06T11:18:54;15.15;79.28
68912;SHT31;55953;51.650;-0.522;2023-08-06T11:21:23;15.35;79.41
68912;SHT31;55953;51.650;-0.522;2023-08-06T11:23:53;15.58;79.66
68912;SHT31;55953;51.650;-0.522;2023-08-06T11:26:21;15.80;79.70
68912;SHT31;55953;51.650;-0.522;2023-08-06T11:28:51;15.98;79.87
68912;SHT31;55953;51.650;-0.522;2023-08-06T11:31:22;16.10;79.20
68912;SHT31;55953;51.650;-0.522;2023-08-06T11:33:51;16.13;78.42
68912;SHT31;55953;51.650;-0.522;2023-08-06T11:36:33;16.26;78.51
68912;SHT31;55953;51.650;-0.522;2023-08-06T11:39:07;16.45;79.01
68912;SHT31;55953;51.650;-0.522;2023-08-06T11:41:36;16.57;78.19
68912;SHT31;55953;51.650;-0.522;2023-08-06T11:44:05;16.67;77.78
68912;SHT31;55953;51.650;-0.522;2023-08-06T11:46:52;16.82;77.66
68912;SHT31;55953;51.650;-0.522;2023-08-06T11:49:39;16.97;77.08
68912;SHT31;55953;51.650;-0.522;2023-08-06T11:52:18;16.95;76.78
68912;SHT31;55953;51.650;-0.522;2023-08-06T11:55:03;16.96;77.23
68912;SHT31;55953;51.650;-0.522;2023-08-06T11:57:39;17.10;75.69
68912;SHT31;55953;51.650;-0.522;2023-08-06T12:00:11;17.33;74.89
68912;SHT31;55953;51.650;-0.522;2023-08-06T12:02:44;17.47;75.15
68912;SHT31;55953;51.650;-0.522;2023-08-06T12:05:14;17.61;74.86
68912;SHT31;55953;51.650;-0.522;2023-08-06T12:08:04;17.75;72.94
68912;SHT31;55953;51.650;-0.522;2023-08-06T12:10:31;17.77;72.28
68912;SHT31;55953;51.650;-0.522;2023-08-06T12:13:00;17.60;71.07
68912;SHT31;55953;51.650;-0.522;2023-08-06T12:15:28;17.42;71.13
68912;SHT31;55953;51.650;-0.522;2023-08-06T12:17:59;17.16;71.09
68912;SHT31;55953;51.650;-0.522;2023-08-06T12:20:27;17.03;72.61
68912;SHT31;55953;51.650;-0.522;2023-08-06T12:22:56;16.93;73.27
68912;SHT31;55953;51.650;-0.522;2023-08-06T12:25:25;16.94;73.26
68912;SHT31;55953;51.650;-0.522;2023-08-06T12:27:53;17.09;73.85
68912;SHT31;55953;51.650;-0.522;2023-08-06T12:30:20;17.26;73.77
68912;SHT31;55953;51.650;-0.522;2023-08-06T12:32:48;17.36;73.33
68912;SHT31;55953;51.650;-0.522;2023-08-06T12:35:16;17.33;72.38
68912;SHT31;55953;51.650;-0.522;2023-08-06T12:37:44;17.27;71.83
68912;SHT31;55953;51.650;-0.522;2023-08-06T12:40:13;17.27;71.91
68912;SHT31;55953;51.650;-0.522;2023-08-06T12:42:43;17.43;73.33
68912;SHT31;55953;51.650;-0.522;2023-08-06T12:45:11;17.48;72.51
68912;SHT31;55953;51.650;-0.522;2023-08-06T12:47:39;17.46;72.11
68912;SHT31;55953;51.650;-0.522;2023-08-06T12:50:07;17.49;71.48
68912;SHT31;55953;51.650;-0.522;2023-08-06T12:52:35;17.57;71.45
68912;SHT31;55953;51.650;-0.522;2023-08-06T12:55:03;17.63;71.21
68912;SHT31;55953;51.650;-0.522;2023-08-06T12:57:31;17.75;71.46
68912;SHT31;55953;51.650;-0.522;2023-08-06T13:00:21;18.06;71.51
68912;SHT31;55953;51.650;-0.522;2023-08-06T13:02:48;18.36;71.38
68912;SHT31;55953;51.650;-0.522;2023-08-06T13:05:16;18.37;68.31
68912;SHT31;55953;51.650;-0.522;2023-08-06T13:07:44;18.09;67.90
68912;SHT31;55953;51.650;-0.522;2023-08-06T13:10:12;17.99;67.88
68912;SHT31;55953;51.650;-0.522;2023-08-06T13:12:40;18.08;68.92
68912;SHT31;55953;51.650;-0.522;2023-08-06T13:15:07;18.24;69.51
68912;SHT31;55953;51.650;-0.522;2023-08-06T13:17:35;18.42;69.11
68912;SHT31;55953;51.650;-0.522;2023-08-06T13:20:04;18.58;67.70
68912;SHT31;55953;51.650;-0.522;2023-08-06T13:22:32;18.69;65.70
68912;SHT31;55953;51.650;-0.522;2023-08-06T13:25:00;18.88;65.74
68912;SHT31;55953;51.650;-0.522;2023-08-06T13:27:28;19.18;64.78
68912;SHT31;55953;51.650;-0.522;2023-08-06T13:29:56;19.26;61.72
68912;SHT31;55953;51.650;-0.522;2023-08-06T13:32:23;19.29;62.46
68912;SHT31;55953;51.650;-0.522;2023-08-06T13:34:51;19.25;63.52
68912;SHT31;55953;51.650;-0.522;2023-08-06T13:37:19;19.23;65.11
68912;SHT31;55953;51.650;-0.522;2023-08-06T13:39:47;19.20;64.01
68912;SHT31;55953;51.650;-0.522;2023-08-06T13:42:15;19.12;63.66
68912;SHT31;55953;51.650;-0.522;2023-08-06T13:44:42;19.19;63.94
68912;SHT31;55953;51.650;-0.522;2023-08-06T13:47:10;19.29;62.75
68912;SHT31;55953;51.650;-0.522;2023-08-06T13:49:38;19.32;63.69
68912;SHT31;55953;51.650;-0.522;2023-08-06T13:52:05;19.61;63.97
68912;SHT31;55953;51.650;-0.522;2023-08-06T13:54:48;19.97;62.83
68912;SHT31;55953;51.650;-0.522;2023-08-06T13:57:16;20.11;60.73
68912;SHT31;55953;51.650;-0.522;2023-08-06T13:59:45;20.07;61.46
68912;SHT31;55953;51.650;-0.522;2023-08-06T14:02:13;20.16;61.74
68912;SHT31;55953;51.650;-0.522;2023-08-06T14:04:40;20.13;60.39
68912;SHT31;55953;51.650;-0.522;2023-08-06T14:07:08;20.06;60.51
68912;SHT31;55953;51.650;-0.522;2023-08-06T14:09:36;19.97;61.03
68912;SHT31;55953;51.650;-0.522;2023-08-06T14:12:04;19.77;60.61
68912;SHT31;55953;51.650;-0.522;2023-08-06T14:14:32;19.54;60.61
68912;SHT31;55953;51.650;-0.522;2023-08-06T14:17:00;19.40;61.10
68912;SHT31;55953;51.650;-0.522;2023-08-06T14:19:29;19.36;62.13
68912;SHT31;55953;51.650;-0.522;2023-08-06T14:21:57;19.25;61.91
68912;SHT31;55953;51.650;-0.522;2023-08-06T14:24:25;19.15;61.89
68912;SHT31;55953;51.650;-0.522;2023-08-06T14:26:53;19.25;62.17
68912;SHT31;55953;51.650;-0.522;2023-08-06T14:29:21;19.35;61.46
68912;SHT31;55953;51.650;-0.522;2023-08-06T14:31:49;19.37;61.09
68912;SHT31;55953;51.650;-0.522;2023-08-06T14:34:18;19.27;61.60
68912;SHT31;55953;51.650;-0.522;2023-08-06T14:36:46;19.18;59.59
68912;SHT31;55953;51.650;-0.522;2023-08-06T14:39:13;19.21;60.25
68912;SHT31;55953;51.650;-0.522;2023-08-06T14:41:41;19.33;59.40
68912;SHT31;55953;51.650;-0.522;2023-08-06T14:44:09;19.44;59.80
68912;SHT31;55953;51.650;-0.522;2023-08-06T14:46:37;19.54;58.75
68912;SHT31;55953;51.650;-0.522;2023-08-06T14:49:05;19.60;58.70
68912;SHT31;55953;51.650;-0.522;2023-08-06T14:51:33;19.58;56.90
68912;SHT31;55953;51.650;-0.522;2023-08-06T14:54:02;19.45;58.37
68912;SHT31;55953;51.650;-0.522;2023-08-06T14:56:30;19.27;58.07
68912;SHT31;55953;51.650;-0.522;2023-08-06T14:58:57;19.17;58.03
68912;SHT31;55953;51.650;-0.522;2023-08-06T15:01:25;19.28;57.68
68912;SHT31;55953;51.650;-0.522;2023-08-06T15:03:53;19.32;57.83
68912;SHT31;55953;51.650;-0.522;2023-08-06T15:06:21;19.40;57.81
68912;SHT31;55953;51.650;-0.522;2023-08-06T15:08:48;19.39;57.01
68912;SHT31;55953;51.650;-0.522;2023-08-06T15:11:16;19.30;57.42
68912;SHT31;55953;51.650;-0.522;2023-08-06T15:13:44;19.15;57.28
68912;SHT31;55953;51.650;-0.522;2023-08-06T15:16:12;19.23;57.70
68912;SHT31;55953;51.650;-0.522;2023-08-06T15:18:40;19.22;56.75
68912;SHT31;55953;51.650;-0.522;2023-08-06T15:21:07;19.33;57.10
68912;SHT31;55953;51.650;-0.522;2023-08-06T15:23:35;19.49;57.55
68912;SHT31;55953;51.650;-0.522;2023-08-06T15:26:03;19.58;56.46
68912;SHT31;55953;51.650;-0.522;2023-08-06T15:28:31;19.49;56.05
68912;SHT31;55953;51.650;-0.522;2023-08-06T15:30:59;19.42;57.09
68912;SHT31;55953;51.650;-0.522;2023-08-06T15:33:29;19.35;57.65